Time;durP1;ratioP1;P1;durP2;ratioP2;P2;SDS_P1;SDS_P2;PMS_P1;PMS_P2;Temp;Humidity;BMP_temperature;BMP_pressure;BME280_temperature;BME280_humidity;BME280_pressure;Samples;Min_cycle;Max_cycle;Signal;HPM_P1;HPM_P2
2022/09/21 00:00:25;;;;;;;3.35;1.05;;;;;;;;;;5054170;28;20031;-75
2022/09/21 00:02:51;;;;;;;6.65;0.90;;;;;;;;;;5051656;28;20064;-75
2022/09/21 00:05:18;;;;;;;4.57;0.85;;;;;;;;;;5055452;28;20024;-75
2022/09/21 00:07:44;;;;;;;7.45;1.08;;;;;;;;;;5052745;28;20082;-75
2022/09/21 00:10:10;;;;;;;4.70;1.10;;;;;;;;;;5051857;28;20086;-75
2022/09/21 00:12:37;;;;;;;8.98;2.25;;;;;;;;;;5051015;28;20376;-74
2022/09/21 00:15:07;;;;;;;4.90;0.93;;;;;;;;;;5054954;28;20049;-75
2022/09/21 00:17:33;;;;;;;5.72;1.02;;;;;;;;;;5050938;28;20036;-75
2022/09/21 00:20:02;;;;;;;4.40;1.00;;;;;;;;;;5053566;28;20136;-75
2022/09/21 00:22:28;;;;;;;4.93;1.02;;;;;;;;;;5055188;28;20494;-75
2022/09/21 00:24:55;;;;;;;3.63;1.02;;;;;;;;;;5051016;28;20033;-75
2022/09/21 00:27:21;;;;;;;5.78;0.98;;;;;;;;;;5054443;28;20064;-75
2022/09/21 00:29:47;;;;;;;5.57;1.52;;;;;;;;;;5055934;28;20071;-75
2022/09/21 00:32:14;;;;;;;5.72;1.30;;;;;;;;;;5052144;28;20539;-74
2022/09/21 00:34:41;;;;;;;6.80;1.30;;;;;;;;;;5052196;28;20096;-74
2022/09/21 00:37:08;;;;;;;4.85;1.20;;;;;;;;;;5053657;28;20040;-74
2022/09/21 00:39:34;;;;;;;7.70;1.33;;;;;;;;;;5055289;28;20029;-74
2022/09/21 00:42:00;;;;;;;5.22;1.35;;;;;;;;;;5051578;28;20177;-75
2022/09/21 00:44:32;;;;;;;6.43;1.30;;;;;;;;;;5056828;28;20028;-75
2022/09/21 00:47:04;;;;;;;7.95;1.55;;;;;;;;;;5056202;28;20040;-75
2022/09/21 00:49:30;;;;;;;6.00;1.33;;;;;;;;;;5054796;28;20033;-74
2022/09/21 00:51:58;;;;;;;5.80;1.38;;;;;;;;;;5055006;28;20078;-74
2022/09/21 00:54:37;;;;;;;4.38;1.10;;;;;;;;;;5053223;28;20037;-74
2022/09/21 00:57:05;;;;;;;4.72;0.90;;;;;;;;;;5056938;28;20035;-74
2022/09/21 00:59:33;;;;;;;7.63;1.10;;;;;;;;;;5055001;28;20032;-74
2022/09/21 01:02:00;;;;;;;5.20;1.02;;;;;;;;;;5058788;28;20031;-74
2022/09/21 01:04:27;;;;;;;6.85;1.30;;;;;;;;;;5055135;28;20039;-74
2022/09/21 01:06:55;;;;;;;5.60;1.25;;;;;;;;;;5056279;28;20071;-75
2022/09/21 01:09:21;;;;;;;4.70;1.48;;;;;;;;;;5058750;28;20495;-74
2022/09/21 01:11:53;;;;;;;8.95;1.27;;;;;;;;;;5056631;28;20103;-75
2022/09/21 01:14:31;;;;;;;6.78;1.60;;;;;;;;;;5052867;28;20025;-74
2022/09/21 01:17:04;;;;;;;9.50;1.70;;;;;;;;;;5058246;28;20024;-75
2022/09/21 01:19:39;;;;;;;6.47;1.45;;;;;;;;;;5052481;28;20021;-74
2022/09/21 01:22:24;;;;;;;8.52;1.27;;;;;;;;;;5055894;28;20489;-75
2022/09/21 01:25:08;;;;;;;7.50;1.35;;;;;;;;;;5054176;28;20395;-76
2022/09/21 01:27:53;;;;;;;7.55;1.55;;;;;;;;;;5055928;28;20122;-74
2022/09/21 01:30:21;;;;;;;4.45;1.15;;;;;;;;;;5058871;28;20031;-75
2022/09/21 01:32:59;;;;;;;7.53;1.48;;;;;;;;;;5058289;28;20107;-75
2022/09/21 01:35:51;;;;;;;6.43;1.73;;;;;;;;;;5055062;28;20129;-75
2022/09/21 01:38:21;;;;;;;5.43;1.75;;;;;;;;;;5061259;28;20028;-74
2022/09/21 01:40:50;;;;;;;2.97;1.08;;;;;;;;;;5057113;28;20020;-74
2022/09/21 01:43:20;;;;;;;5.00;1.33;;;;;;;;;;5058824;28;20028;-74
2022/09/21 01:45:46;;;;;;;;;;;;;;;;;;5061170;28;20118;-75
2022/09/21 01:48:14;;;;;;;5.35;1.30;;;;;;;;;;5053449;28;20018;-75
2022/09/21 01:50:43;;;;;;;6.03;1.88;;;;;;;;;;5055161;28;20627;-74
2022/09/21 01:53:21;;;;;;;5.65;1.45;;;;;;;;;;5054645;28;20078;-74
2022/09/21 01:55:53;;;;;;;7.78;1.48;;;;;;;;;;5057393;28;20027;-74
2022/09/21 01:58:23;;;;;;;5.35;1.60;;;;;;;;;;5053410;28;20082;-74
2022/09/21 02:00:49;;;;;;;;;;;;;;;;;;5053449;28;20025;-74
2022/09/21 02:03:30;;;;;;;7.30;1.30;;;;;;;;;;5056870;28;20326;-74
2022/09/21 02:05:56;;;;;;;5.00;1.50;;;;;;;;;;5057567;28;20123;-74
2022/09/21 02:08:25;;;;;;;6.05;1.92;;;;;;;;;;5056625;28;20087;-74
2022/09/21 02:10:52;;;;;;;6.82;1.45;;;;;;;;;;5053615;28;20017;-74
2022/09/21 02:13:19;;;;;;;7.60;1.35;;;;;;;;;;5055928;28;20032;-75
2022/09/21 02:15:54;;;;;;;3.95;1.20;;;;;;;;;;5053633;28;20028;-74
2022/09/21 02:18:29;;;;;;;4.95;1.38;;;;;;;;;;5056058;28;20021;-74
2022/09/21 02:20:59;;;;;;;8.65;1.50;;;;;;;;;;5057017;28;20032;-75
2022/09/21 02:23:25;;;;;;;6.18;1.30;;;;;;;;;;5055507;28;20170;-75
2022/09/21 02:25:58;;;;;;;6.45;1.20;;;;;;;;;;5058210;28;20531;-75
2022/09/21 02:28:26;;;;;;;5.55;1.75;;;;;;;;;;5057614;28;20039;-75
2022/09/21 02:31:06;;;;;;;5.05;1.40;;;;;;;;;;5057721;28;20163;-74
2022/09/21 02:33:37;;;;;;;10.18;1.83;;;;;;;;;;5055844;28;20024;-74
2022/09/21 02:36:29;;;;;;;6.18;1.35;;;;;;;;;;5056325;28;20039;-75
2022/09/21 02:39:06;;;;;;;9.18;2.03;;;;;;;;;;5053246;28;20110;-74
2022/09/21 02:41:51;;;;;;;5.53;1.15;;;;;;;;;;5054296;28;20025;-74
2022/09/21 02:44:32;;;;;;;6.10;1.20;;;;;;;;;;5057441;28;20029;-74
2022/09/21 02:47:14;;;;;;;4.72;1.52;;;;;;;;;;5054123;28;20029;-74
2022/09/21 02:49:50;;;;;;;7.03;1.30;;;;;;;;;;5054406;28;20834;-74
2022/09/21 02:52:17;;;;;;;4.38;1.00;;;;;;;;;;5054355;28;20107;-74
2022/09/21 02:54:46;;;;;;;11.93;1.70;;;;;;;;;;5057311;28;20060;-74
2022/09/21 02:57:14;;;;;;;6.93;1.08;;;;;;;;;;5056413;28;20028;-74
2022/09/21 02:59:40;;;;;;;8.50;0.90;;;;;;;;;;5055823;28;20032;-74
2022/09/21 03:02:06;;;;;;;4.55;1.33;;;;;;;;;;5054694;28;20098;-74
2022/09/21 03:04:33;;;;;;;5.82;1.00;;;;;;;;;;5056774;28;20020;-74
2022/09/21 03:06:59;;;;;;;5.55;1.08;;;;;;;;;;5052240;28;20510;-75
2022/09/21 03:09:25;;;;;;;5.57;1.10;;;;;;;;;;5052369;28;20067;-75
2022/09/21 03:11:51;;;;;;;4.28;1.10;;;;;;;;;;5055574;28;20025;-75
2022/09/21 03:14:18;;;;;;;4.85;1.10;;;;;;;;;;5054959;28;20025;-76
2022/09/21 03:16:44;;;;;;;4.88;1.05;;;;;;;;;;5053570;28;20082;-74
2022/09/21 03:19:11;;;;;;;8.63;1.52;;;;;;;;;;5052450;28;20025;-74
2022/09/21 03:21:37;;;;;;;7.10;1.00;;;;;;;;;;5056693;28;20045;-74
2022/09/21 03:24:09;;;;;;;5.18;1.17;;;;;;;;;;5054260;28;20075;-74
2022/09/21 03:26:36;;;;;;;5.85;1.15;;;;;;;;;;5057875;28;20028;-73
2022/09/21 03:29:03;;;;;;;6.32;1.02;;;;;;;;;;5052958;28;20021;-74
2022/09/21 03:31:30;;;;;;;8.00;1.35;;;;;;;;;;5055303;28;20479;-74
2022/09/21 03:33:56;;;;;;;7.32;1.15;;;;;;;;;;5053176;28;20108;-74
2022/09/21 03:36:22;;;;;;;5.35;1.35;;;;;;;;;;5056229;28;20411;-74
2022/09/21 03:38:48;;;;;;;3.80;0.93;;;;;;;;;;5050985;28;20025;-74
2022/09/21 03:41:14;;;;;;;5.00;1.23;;;;;;;;;;5054741;28;20748;-75
2022/09/21 03:43:40;;;;;;;5.95;1.20;;;;;;;;;;5052942;28;20033;-75
2022/09/21 03:46:07;;;;;;;4.18;0.88;;;;;;;;;;5053647;28;20407;-75
2022/09/21 03:48:33;;;;;;;6.18;1.10;;;;;;;;;;5053933;28;20075;-75
2022/09/21 03:51:00;;;;;;;5.28;1.08;;;;;;;;;;5053484;28;20063;-75
2022/09/21 03:53:26;;;;;;;5.82;1.42;;;;;;;;;;5052382;28;20043;-74
2022/09/21 03:55:52;;;;;;;6.53;1.17;;;;;;;;;;5054976;28;20036;-75
2022/09/21 03:58:18;;;;;;;9.07;1.48;;;;;;;;;;5055019;28;20029;-74
2022/09/21 04:00:45;;;;;;;5.53;1.55;;;;;;;;;;5052716;28;20020;-74
2022/09/21 04:03:11;;;;;;;6.97;1.48;;;;;;;;;;5053299;28;20048;-74
2022/09/21 04:05:38;;;;;;;6.47;1.08;;;;;;;;;;5053299;28;20059;-75
2022/09/21 04:08:04;;;;;;;7.57;1.55;;;;;;;;;;5054511;28;20101;-74
2022/09/21 04:10:32;;;;;;;7.15;1.50;;;;;;;;;;5056021;28;20056;-74
2022/09/21 04:13:00;;;;;;;7.85;2.15;;;;;;;;;;5057557;28;20509;-74
2022/09/21 04:15:26;;;;;;;7.57;2.13;;;;;;;;;;5058588;28;20036;-74
2022/09/21 04:17:53;;;;;;;4.93;1.98;;;;;;;;;;5056595;28;20032;-74
2022/09/21 04:20:19;;;;;;;10.57;1.92;;;;;;;;;;5054555;28;20032;-74
2022/09/21 04:22:46;;;;;;;7.47;1.48;;;;;;;;;;5055420;28;20044;-74
2022/09/21 04:25:12;;;;;;;3.45;1.10;;;;;;;;;;5054472;28;20027;-75
2022/09/21 04:27:39;;;;;;;10.63;1.50;;;;;;;;;;5052949;28;20032;-75
2022/09/21 04:30:05;;;;;;;7.15;1.80;;;;;;;;;;5050478;28;20100;-74
2022/09/21 04:32:31;;;;;;;7.45;1.83;;;;;;;;;;5052200;28;20167;-76
2022/09/21 04:34:57;;;;;;;3.80;1.30;;;;;;;;;;5056834;28;20489;-75
2022/09/21 04:37:23;;;;;;;7.55;1.63;;;;;;;;;;5057857;28;20605;-75
2022/09/21 04:39:50;;;;;;;8.18;1.30;;;;;;;;;;5057193;28;20471;-75
2022/09/21 04:42:16;;;;;;;6.43;1.50;;;;;;;;;;5058698;28;20522;-76
2022/09/21 04:44:42;;;;;;;6.85;1.60;;;;;;;;;;5056672;28;20514;-74
2022/09/21 04:47:08;;;;;;;7.93;1.50;;;;;;;;;;5059416;28;20391;-75
2022/09/21 04:49:35;;;;;;;7.55;1.10;;;;;;;;;;5056764;28;20025;-74
2022/09/21 04:52:02;;;;;;;3.60;1.08;;;;;;;;;;5058496;28;20744;-74
2022/09/21 04:54:28;;;;;;;4.90;1.55;;;;;;;;;;5058067;28;20085;-74
2022/09/21 04:56:54;;;;;;;9.60;1.70;;;;;;;;;;5056765;28;20028;-74
2022/09/21 04:59:20;;;;;;;8.35;1.65;;;;;;;;;;5058528;28;20035;-73
2022/09/21 05:01:46;;;;;;;11.48;1.98;;;;;;;;;;5056607;28;20029;-74
2022/09/21 05:04:12;;;;;;;8.75;2.25;;;;;;;;;;5056340;28;20090;-74
2022/09/21 05:06:38;;;;;;;6.60;1.70;;;;;;;;;;5056603;28;20040;-74
2022/09/21 05:11:50;;;;;;;6.55;2.35;;;;;;;;;;5057667;28;20120;-74
2022/09/21 05:14:16;;;;;;;8.25;1.90;;;;;;;;;;5053225;28;20116;-74
2022/09/21 05:16:42;;;;;;;5.35;1.58;;;;;;;;;;5052872;28;20021;-73
2022/09/21 05:19:08;;;;;;;5.55;1.60;;;;;;;;;;5054747;28;20027;-73
2022/09/21 05:21:35;;;;;;;6.35;1.75;;;;;;;;;;5056492;28;20814;-74
2022/09/21 05:24:01;;;;;;;9.57;2.38;;;;;;;;;;5058308;28;20032;-74
2022/09/21 05:26:27;;;;;;;6.03;1.90;;;;;;;;;;5056065;28;20033;-74
2022/09/21 05:28:53;;;;;;;6.53;1.75;;;;;;;;;;5054345;28;20109;-74
2022/09/21 05:31:40;;;;;;;5.47;1.58;;;;;;;;;;5054086;28;20498;-73
2022/09/21 05:34:16;;;;;;;7.65;2.05;;;;;;;;;;5054836;28;20209;-75
2022/09/21 05:36:42;;;;;;;4.90;1.70;;;;;;;;;;5055560;28;20031;-75
2022/09/21 05:39:08;;;;;;;4.72;1.90;;;;;;;;;;5057319;28;20032;-75
2022/09/21 05:41:35;;;;;;;6.03;1.55;;;;;;;;;;5055820;28;20136;-74
2022/09/21 05:44:02;;;;;;;10.80;1.90;;;;;;;;;;5054863;28;20028;-75
2022/09/21 05:46:39;;;;;;;7.65;2.13;;;;;;;;;;5061012;28;20097;-74
2022/09/21 05:49:15;;;;;;;7.93;2.28;;;;;;;;;;5058272;28;20482;-73
2022/09/21 05:51:41;;;;;;;4.50;1.60;;;;;;;;;;5057904;28;20131;-74
2022/09/21 05:54:13;;;;;;;6.03;2.05;;;;;;;;;;5056332;28;20052;-74
2022/09/21 05:56:45;;;;;;;6.93;2.22;;;;;;;;;;5058784;28;20025;-74
2022/09/21 05:59:29;;;;;;;6.00;3.08;;;;;;;;;;5052905;28;20044;-74
2022/09/21 06:02:08;;;;;;;8.27;3.22;;;;;;;;;;5055006;28;20116;-73
2022/09/21 06:04:34;;;;;;;6.13;2.15;;;;;;;;;;5057549;28;20203;-74
2022/09/21 06:07:00;;;;;;;3.75;1.10;;;;;;;;;;5058727;28;20037;-73
2022/09/21 06:09:26;;;;;;;6.85;1.75;;;;;;;;;;5056159;28;22926;-74
2022/09/21 06:11:53;;;;;;;14.05;6.22;;;;;;;;;;5055937;28;20108;-74
2022/09/21 06:14:23;;;;;;;9.43;2.90;;;;;;;;;;5057131;28;20108;-73
2022/09/21 06:16:49;;;;;;;6.63;2.28;;;;;;;;;;5052257;28;20035;-74
2022/09/21 06:19:17;;;;;;;5.72;2.10;;;;;;;;;;5055975;28;20467;-73
2022/09/21 06:21:43;;;;;;;5.25;2.33;;;;;;;;;;5054294;28;20139;-74
2022/09/21 06:24:14;;;;;;;2.95;1.17;;;;;;;;;;5053513;28;20033;-75
2022/09/21 06:26:40;;;;;;;5.85;1.42;;;;;;;;;;5056394;28;20040;-74
2022/09/21 06:29:06;;;;;;;2.58;0.82;;;;;;;;;;5049545;28;20037;-74
2022/09/21 06:31:33;;;;;;;4.97;1.23;;;;;;;;;;5056485;28;20036;-75
2022/09/21 06:33:59;;;;;;;13.93;2.35;;;;;;;;;;5053693;28;20028;-74
2022/09/21 06:36:25;;;;;;;7.15;1.85;;;;;;;;;;5055200;28;20024;-72
2022/09/21 06:38:51;;;;;;;8.85;2.20;;;;;;;;;;5058053;28;20391;-74
2022/09/21 06:41:17;;;;;;;10.50;2.58;;;;;;;;;;5051755;28;20480;-73
2022/09/21 06:43:43;;;;;;;8.55;2.60;;;;;;;;;;5051922;28;20029;-73
2022/09/21 06:46:09;;;;;;;7.30;1.98;;;;;;;;;;5055787;28;20044;-73
2022/09/21 06:48:35;;;;;;;5.85;1.90;;;;;;;;;;5053419;28;20547;-73
2022/09/21 06:51:04;;;;;;;6.43;1.70;;;;;;;;;;5055096;28;20025;-73
2022/09/21 06:53:31;;;;;;;5.93;2.13;;;;;;;;;;5054105;28;20051;-74
2022/09/21 06:56:05;;;;;;;11.32;2.30;;;;;;;;;;5047784;28;20028;-74
2022/09/21 06:58:33;;;;;;;8.27;2.10;;;;;;;;;;5054082;28;20035;-74
2022/09/21 07:01:03;;;;;;;6.03;2.25;;;;;;;;;;5056785;28;20031;-74
2022/09/21 07:03:30;;;;;;;7.55;2.17;;;;;;;;;;5050930;28;20025;-73
2022/09/21 07:05:56;;;;;;;5.57;2.58;;;;;;;;;;5055769;28;20028;-74
2022/09/21 07:08:22;;;;;;;7.38;2.30;;;;;;;;;;5053774;28;21011;-74
2022/09/21 07:10:48;;;;;;;6.32;2.13;;;;;;;;;;5051631;28;20102;-74
2022/09/21 07:13:16;;;;;;;4.55;2.08;;;;;;;;;;5054349;28;20663;-74
2022/09/21 07:15:43;;;;;;;5.18;2.05;;;;;;;;;;5053758;28;20025;-75
2022/09/21 07:18:12;;;;;;;3.53;1.50;;;;;;;;;;5055469;28;20036;-77
2022/09/21 07:20:39;;;;;;;11.60;4.07;;;;;;;;;;5048322;28;20016;-77
2022/09/21 07:23:14;;;;;;;6.80;3.13;;;;;;;;;;5055096;28;20067;-79
2022/09/21 07:25:40;;;;;;;10.88;3.72;;;;;;;;;;5051125;28;20021;-77
2022/09/21 07:28:07;;;;;;;8.68;3.58;;;;;;;;;;5052071;28;20036;-77
2022/09/21 07:30:33;;;;;;;11.13;4.43;;;;;;;;;;5051848;28;20122;-76
2022/09/21 07:32:59;;;;;;;10.13;4.18;;;;;;;;;;5056361;28;20509;-76
2022/09/21 07:35:25;;;;;;;11.43;4.03;;;;;;;;;;5053293;28;20025;-74
2022/09/21 07:37:51;;;;;;;15.43;4.10;;;;;;;;;;5051356;28;20028;-74
2022/09/21 07:40:17;;;;;;;9.45;4.82;;;;;;;;;;5047450;28;20506;-75
2022/09/21 07:42:45;;;;;;;14.15;4.60;;;;;;;;;;5052315;28;20100;-75
2022/09/21 07:45:11;;;;;;;9.27;3.92;;;;;;;;;;5052260;28;20606;-74
2022/09/21 07:47:37;;;;;;;9.35;3.78;;;;;;;;;;5053722;28;20040;-74
2022/09/21 07:50:03;;;;;;;8.25;3.67;;;;;;;;;;5052665;28;20530;-76
2022/09/21 07:52:29;;;;;;;8.57;3.88;;;;;;;;;;5049485;28;20031;-76
2022/09/21 07:54:55;;;;;;;9.25;2.53;;;;;;;;;;5055666;28;20029;-72
2022/09/21 08:00:08;;;;;;;8.95;4.25;;;;;;;;;;5053099;28;20397;-72
2022/09/21 08:02:34;;;;;;;12.75;3.83;;;;;;;;;;5050086;28;20025;-77
2022/09/21 08:05:00;;;;;;;9.43;2.63;;;;;;;;;;5049541;28;20032;-78
2022/09/21 08:07:27;;;;;;;8.77;3.78;;;;;;;;;;5052836;28;20217;-77
2022/09/21 08:09:53;;;;;;;8.38;3.22;;;;;;;;;;5054579;28;20078;-81
2022/09/21 08:12:19;;;;;;;12.95;4.15;;;;;;;;;;5052286;28;20024;-80
2022/09/21 08:14:46;;;;;;;10.82;4.10;;;;;;;;;;5049799;28;20028;-81
2022/09/21 08:17:12;;;;;;;10.45;4.03;;;;;;;;;;5053775;28;20511;-79
2022/09/21 08:19:39;;;;;;;8.73;3.72;;;;;;;;;;5055739;28;20021;-81
2022/09/21 08:22:05;;;;;;;8.02;2.72;;;;;;;;;;5051228;28;20052;-79
2022/09/21 08:24:32;;;;;;;14.85;3.72;;;;;;;;;;5054115;28;20036;-79
2022/09/21 08:26:58;;;;;;;8.02;3.17;;;;;;;;;;5052987;28;20033;-78
2022/09/21 08:29:25;;;;;;;7.82;3.30;;;;;;;;;;5055800;28;20028;-76
2022/09/21 08:31:52;;;;;;;10.38;3.05;;;;;;;;;;5053086;28;20411;-78
2022/09/21 08:34:18;;;;;;;8.25;3.00;;;;;;;;;;5049517;28;20013;-74
2022/09/21 08:36:45;;;;;;;11.95;2.35;;;;;;;;;;5049636;28;20093;-76
2022/09/21 08:39:11;;;;;;;6.72;2.28;;;;;;;;;;5052609;28;20876;-76
2022/09/21 08:41:37;;;;;;;6.32;1.80;;;;;;;;;;5049231;28;20496;-76
2022/09/21 08:44:15;;;;;;;5.45;2.35;;;;;;;;;;5049843;28;20033;-82
2022/09/21 08:46:42;;;;;;;7.85;2.50;;;;;;;;;;5049257;28;20037;-82
2022/09/21 08:49:17;;;;;;;6.90;1.95;;;;;;;;;;5051263;28;20036;-78
2022/09/21 08:51:52;;;;;;;8.23;2.55;;;;;;;;;;5052280;28;20032;-84
2022/09/21 08:54:27;;;;;;;8.50;2.38;;;;;;;;;;5050111;28;20028;-78
2022/09/21 08:56:53;;;;;;;7.18;2.97;;;;;;;;;;5052744;28;20078;-79
2022/09/21 08:59:21;;;;;;;6.15;2.70;;;;;;;;;;5051297;28;20033;-76
2022/09/21 09:01:47;;;;;;;7.32;2.25;;;;;;;;;;5048982;28;20071;-76
2022/09/21 09:04:15;;;;;;;6.43;2.00;;;;;;;;;;5051912;28;20045;-78
2022/09/21 09:07:01;;;;;;;4.45;1.73;;;;;;;;;;5053541;28;20762;-77
2022/09/21 09:09:36;;;;;;;8.88;2.13;;;;;;;;;;5049126;28;20029;-77
2022/09/21 09:12:09;;;;;;;8.25;1.75;;;;;;;;;;5052296;28;20107;-76
2022/09/21 09:14:53;;;;;;;7.47;1.92;;;;;;;;;;5054430;28;20356;-76
2022/09/21 09:17:22;;;;;;;4.60;1.13;;;;;;;;;;5050924;28;20061;-76
2022/09/21 09:19:51;;;;;;;9.07;1.60;;;;;;;;;;5054007;28;21564;-72
2022/09/21 09:22:23;;;;;;;4.43;1.13;;;;;;;;;;5053571;28;20040;-73
2022/09/21 09:24:50;;;;;;;6.68;1.20;;;;;;;;;;5054560;28;20471;-77
2022/09/21 09:27:42;;;;;;;9.38;2.00;;;;;;;;;;5056535;28;20048;-73
2022/09/21 09:30:19;;;;;;;7.40;2.05;;;;;;;;;;5055279;28;20130;-75
2022/09/21 09:32:57;;;;;;;5.32;1.52;;;;;;;;;;5052882;28;20032;-76
2022/09/21 09:35:29;;;;;;;8.27;1.33;;;;;;;;;;5055802;28;20044;-75
2022/09/21 09:38:18;;;;;;;7.00;1.92;;;;;;;;;;5058630;28;20084;-74
2022/09/21 09:41:03;;;;;;;5.28;1.30;;;;;;;;;;5054796;28;20045;-74
2022/09/21 09:43:41;;;;;;;4.57;1.27;;;;;;;;;;5061332;28;20112;-73
2022/09/21 09:46:28;;;;;;;7.15;1.23;;;;;;;;;;5051224;28;20065;-73
2022/09/21 09:48:54;;;;;;;7.05;1.30;;;;;;;;;;5067904;28;20044;-74
2022/09/21 09:51:20;;;;;;;7.53;2.45;;;;;;;;;;5060846;28;20411;-73
2022/09/21 09:53:48;;;;;;;9.98;2.50;;;;;;;;;;5069513;28;20020;-73
2022/09/21 09:56:14;;;;;;;6.65;1.60;;;;;;;;;;5058476;28;20029;-75
2022/09/21 09:58:40;;;;;;;10.07;1.30;;;;;;;;;;5067140;28;20039;-75
2022/09/21 10:01:06;;;;;;;7.88;2.42;;;;;;;;;;5069645;28;20846;-77
2022/09/21 10:03:32;;;;;;;5.20;1.40;;;;;;;;;;5067957;28;20103;-77
2022/09/21 10:05:58;;;;;;;4.85;1.38;;;;;;;;;;5069444;28;20029;-75
2022/09/21 10:08:38;;;;;;;9.43;2.03;;;;;;;;;;5068726;28;20394;-76
2022/09/21 10:11:04;;;;;;;5.60;1.77;;;;;;;;;;5067893;28;20024;-77
2022/09/21 10:13:37;;;;;;;6.63;1.92;;;;;;;;;;5068360;28;20020;-78
2022/09/21 10:16:05;;;;;;;5.70;1.60;;;;;;;;;;5068129;28;20017;-77
2022/09/21 10:18:37;;;;;;;5.93;2.08;;;;;;;;;;5067446;28;20020;-77
2022/09/21 10:21:07;;;;;;;5.05;1.75;;;;;;;;;;5068531;28;20035;-76
2022/09/21 10:23:33;;;;;;;8.15;2.13;;;;;;;;;;5068242;28;20027;-76
2022/09/21 10:26:01;;;;;;;5.93;1.27;;;;;;;;;;5068529;28;20024;-75
2022/09/21 10:28:27;;;;;;;6.30;1.67;;;;;;;;;;5067997;28;20032;-76
2022/09/21 10:31:14;;;;;;;5.93;1.25;;;;;;;;;;5069298;28;20025;-76
2022/09/21 10:33:50;;;;;;;7.75;1.60;;;;;;;;;;5068655;28;20036;-76
2022/09/21 10:36:28;;;;;;;5.90;1.48;;;;;;;;;;5062965;28;20032;-75
2022/09/21 10:38:54;;;;;;;6.60;1.40;;;;;;;;;;5069531;28;20028;-77
2022/09/21 10:41:21;;;;;;;7.88;2.15;;;;;;;;;;5069509;28;20051;-77
2022/09/21 10:43:49;;;;;;;6.82;1.50;;;;;;;;;;5069491;28;20036;-76
2022/09/21 10:46:15;;;;;;;4.55;1.17;;;;;;;;;;5069149;28;20055;-77
2022/09/21 10:48:44;;;;;;;7.80;1.38;;;;;;;;;;5069537;28;20032;-76
2022/09/21 10:51:20;;;;;;;4.38;1.55;;;;;;;;;;5069319;28;20863;-77
2022/09/21 10:53:50;;;;;;;4.75;1.08;;;;;;;;;;5068104;28;20032;-77
2022/09/21 10:56:18;;;;;;;5.10;1.05;;;;;;;;;;5069031;28;20085;-77
2022/09/21 10:59:03;;;;;;;4.47;1.10;;;;;;;;;;5069007;28;20374;-77
2022/09/21 11:01:30;;;;;;;4.15;0.90;;;;;;;;;;5068676;28;20028;-78
2022/09/21 11:04:02;;;;;;;3.45;0.52;;;;;;;;;;5067897;28;20031;-77
2022/09/21 11:06:31;;;;;;;3.20;0.70;;;;;;;;;;5049136;28;20045;-79
2022/09/21 11:09:03;;;;;;;3.17;0.90;;;;;;;;;;5052627;28;20210;-76
2022/09/21 11:11:49;;;;;;;3.97;0.85;;;;;;;;;;5067911;28;20127;-78
2022/09/21 11:14:33;;;;;;;2.70;1.00;;;;;;;;;;5068752;28;20096;-78
2022/09/21 11:17:19;;;;;;;6.25;0.80;;;;;;;;;;5067320;28;20559;-78
2022/09/21 11:19:50;;;;;;;4.47;0.98;;;;;;;;;;5068743;28;20025;-78
2022/09/21 11:22:16;;;;;;;4.70;0.77;;;;;;;;;;5067983;28;20068;-77
2022/09/21 11:24:52;;;;;;;3.53;0.95;;;;;;;;;;5067933;28;20036;-76
2022/09/21 11:27:52;;;;;;;2.85;0.50;;;;;;;;;;5064435;28;20045;-78
2022/09/21 11:30:19;;;;;;;2.20;0.90;;;;;;;;;;5052600;28;20060;-77
2022/09/21 11:32:52;;;;;;;3.83;0.70;;;;;;;;;;5067979;28;20025;-76
2022/09/21 11:35:31;;;;;;;2.47;0.77;;;;;;;;;;5068216;28;20117;-77
2022/09/21 11:38:08;;;;;;;2.42;0.60;;;;;;;;;;5056663;28;20111;-77
2022/09/21 11:40:34;;;;;;;2.88;0.60;;;;;;;;;;5068240;28;20040;-78
2022/09/21 11:43:19;;;;;;;3.05;0.70;;;;;;;;;;5068424;28;20032;-77
2022/09/21 11:45:59;;;;;;;2.47;0.70;;;;;;;;;;5068186;28;20024;-77
2022/09/21 11:48:27;;;;;;;2.67;0.60;;;;;;;;;;5068506;28;20036;-78
2022/09/21 11:50:56;;;;;;;6.70;1.58;;;;;;;;;;5068067;28;20082;-78
2022/09/21 11:53:28;;;;;;;3.97;0.77;;;;;;;;;;5057392;28;20115;-77
2022/09/21 11:56:12;;;;;;;11.38;1.75;;;;;;;;;;5066576;28;20028;-77
2022/09/21 11:59:02;;;;;;;5.00;1.30;;;;;;;;;;5057227;28;20031;-75
2022/09/21 12:01:30;;;;;;;;;;;;;;;;;;5066891;28;20036;-77
2022/09/21 12:04:03;;;;;;;2.78;0.68;;;;;;;;;;5068979;28;19905;-75
2022/09/21 12:06:30;;;;;;;6.10;1.00;;;;;;;;;;5067593;28;20386;-76
2022/09/21 12:09:17;;;;;;;2.38;0.73;;;;;;;;;;5057496;28;20031;-76
2022/09/21 12:11:43;;;;;;;5.47;1.25;;;;;;;;;;5046703;28;20573;-76
2022/09/21 12:14:16;;;;;;;5.10;0.90;;;;;;;;;;5067797;28;20040;-75
2022/09/21 12:16:54;;;;;;;6.32;0.93;;;;;;;;;;5068575;28;20182;-76
2022/09/21 12:19:23;;;;;;;3.80;1.08;;;;;;;;;;5048350;28;20132;-76
2022/09/21 12:21:50;;;;;;;7.38;1.20;;;;;;;;;;5051465;28;20107;-76
2022/09/21 12:24:37;;;;;;;4.10;1.10;;;;;;;;;;5067989;28;20025;-77
2022/09/21 12:27:23;;;;;;;4.45;0.80;;;;;;;;;;5067356;28;20067;-76
2022/09/21 12:29:52;;;;;;;7.60;1.33;;;;;;;;;;5068144;28;20044;-77
2022/09/21 12:32:24;;;;;;;4.07;1.25;;;;;;;;;;5068035;28;20025;-77
2022/09/21 12:34:55;;;;;;;4.75;0.93;;;;;;;;;;5056547;28;20026;-77
2022/09/21 12:37:24;;;;;;;7.72;1.27;;;;;;;;;;5068304;28;20025;-77
2022/09/21 12:39:50;;;;;;;4.10;0.90;;;;;;;;;;5067154;28;20049;-77
2022/09/21 12:42:26;;;;;;;5.80;1.10;;;;;;;;;;5060638;28;20442;-77
2022/09/21 12:44:58;;;;;;;2.35;0.60;;;;;;;;;;5057334;28;20017;-76
2022/09/21 12:47:43;;;;;;;3.45;0.80;;;;;;;;;;5051908;28;20041;-77
2022/09/21 12:50:19;;;;;;;9.93;1.33;;;;;;;;;;5065302;28;20033;-76
2022/09/21 12:52:46;;;;;;;4.15;1.02;;;;;;;;;;5062235;28;20093;-76
2022/09/21 12:55:22;;;;;;;5.32;0.82;;;;;;;;;;5059910;28;20056;-77
2022/09/21 12:57:54;;;;;;;2.90;1.00;;;;;;;;;;5053360;28;20033;-76
2022/09/21 13:00:21;;;;;;;3.05;1.02;;;;;;;;;;5072644;28;20028;-77
2022/09/21 13:02:53;;;;;;;2.85;0.77;;;;;;;;;;5071939;28;20037;-76
2022/09/21 13:05:39;;;;;;;3.67;0.85;;;;;;;;;;5065280;28;20100;-76
2022/09/21 13:08:05;;;;;;;6.93;1.20;;;;;;;;;;5053373;28;20036;-76
2022/09/21 13:10:31;;;;;;;3.45;0.50;;;;;;;;;;5071384;28;20056;-76
2022/09/21 13:13:01;;;;;;;3.05;0.75;;;;;;;;;;5070687;28;20134;-76
2022/09/21 13:15:32;;;;;;;3.65;0.95;;;;;;;;;;5071499;28;20056;-77
2022/09/21 13:18:00;;;;;;;3.13;0.88;;;;;;;;;;5071886;28;20085;-76
2022/09/21 13:20:26;;;;;;;3.50;0.70;;;;;;;;;;5071160;28;20376;-77
2022/09/21 13:23:00;;;;;;;1.38;0.50;;;;;;;;;;5071714;28;20048;-77
2022/09/21 13:25:28;;;;;;;2.15;0.75;;;;;;;;;;5071565;28;20032;-77
2022/09/21 13:28:00;;;;;;;3.17;0.90;;;;;;;;;;5070992;28;20607;-77
2022/09/21 13:30:26;;;;;;;2.95;0.60;;;;;;;;;;5071177;28;20032;-78
2022/09/21 13:32:53;;;;;;;2.47;0.60;;;;;;;;;;5072142;28;20029;-78
2022/09/21 13:35:38;;;;;;;2.42;0.50;;;;;;;;;;5071706;28;20031;-77
2022/09/21 13:38:22;;;;;;;1.52;0.55;;;;;;;;;;5071481;28;20032;-77
2022/09/21 13:40:55;;;;;;;4.80;1.02;;;;;;;;;;5070717;28;20051;-77
2022/09/21 13:43:22;;;;;;;3.58;0.70;;;;;;;;;;5070838;28;20024;-77
2022/09/21 13:45:50;;;;;;;5.75;0.80;;;;;;;;;;5070337;28;20098;-75
2022/09/21 13:48:28;;;;;;;4.35;1.13;;;;;;;;;;5070039;28;20098;-78
2022/09/21 13:50:58;;;;;;;4.00;0.50;;;;;;;;;;5070195;28;20023;-76
2022/09/21 13:53:24;;;;;;;;;;;;;;;;;;5071716;28;20078;-79
2022/09/21 13:55:52;;;;;;;6.03;0.82;;;;;;;;;;5068632;28;20803;-75
2022/09/21 13:58:29;;;;;;;2.85;0.52;;;;;;;;;;5070272;28;20145;-77
2022/09/21 14:00:55;;;;;;;5.70;1.17;;;;;;;;;;5070188;28;20017;-75
2022/09/21 14:03:21;;;;;;;8.23;1.02;;;;;;;;;;5068942;28;20033;-77
2022/09/21 14:05:55;;;;;;;7.13;1.33;;;;;;;;;;5069408;28;20477;-75
2022/09/21 14:08:32;;;;;;;8.25;0.98;;;;;;;;;;5066157;28;20064;-76
2022/09/21 14:11:01;;;;;;;8.25;1.27;;;;;;;;;;5069063;28;20028;-75
2022/09/21 14:13:37;;;;;;;10.48;1.20;;;;;;;;;;5070472;28;20039;-77
2022/09/21 14:16:22;;;;;;;7.88;1.02;;;;;;;;;;5070411;28;20379;-77
2022/09/21 14:18:48;;;;;;;5.80;0.98;;;;;;;;;;5068896;28;20487;-78
2022/09/21 14:21:18;;;;;;;6.47;1.23;;;;;;;;;;5069795;28;20495;-80
2022/09/21 14:24:03;;;;;;;4.70;1.17;;;;;;;;;;5071839;28;20383;-77
2022/09/21 14:26:30;;;;;;;8.93;1.80;;;;;;;;;;5068610;28;20032;-75
2022/09/21 14:28:56;;;;;;;7.95;1.30;;;;;;;;;;5054943;28;20589;-76
2022/09/21 14:31:30;;;;;;;10.35;1.80;;;;;;;;;;5058317;28;20025;-77
2022/09/21 14:33:58;;;;;;;9.90;1.38;;;;;;;;;;5060075;28;20035;-77
2022/09/21 14:36:33;;;;;;;14.32;1.50;;;;;;;;;;5062870;28;20027;-78
2022/09/21 14:39:01;;;;;;;6.90;1.50;;;;;;;;;;5061840;28;20111;-78
2022/09/21 14:41:33;;;;;;;6.95;1.02;;;;;;;;;;5063357;28;20415;-77
2022/09/21 14:43:59;;;;;;;15.80;1.88;;;;;;;;;;5069895;28;20447;-77
2022/09/21 14:46:28;;;;;;;17.75;2.30;;;;;;;;;;5069608;28;20526;-78
2022/09/21 14:48:54;;;;;;;15.43;2.03;;;;;;;;;;5069255;28;20413;-77
2022/09/21 14:51:37;;;;;;;17.25;2.15;;;;;;;;;;5069646;28;20171;-78
2022/09/21 14:54:12;;;;;;;17.15;2.58;;;;;;;;;;5069765;28;20069;-77
2022/09/21 14:56:44;;;;;;;20.73;2.33;;;;;;;;;;5068266;28;20372;-77
2022/09/21 14:59:20;;;;;;;16.42;2.88;;;;;;;;;;5064788;28;20104;-77
2022/09/21 15:01:58;;;;;;;17.20;2.33;;;;;;;;;;5067509;28;20479;-77
2022/09/21 15:04:24;;;;;;;15.57;2.10;;;;;;;;;;5066468;28;20054;-78
2022/09/21 15:12:53;;;;;;;17.40;2.60;;;;;;;;;;5069324;28;20035;-77